sensor_id;sensor_type;location;lat;lon;timestamp;temperature;humidity
32400;DHT22;45045;45.440;9.178;2024-03-02T00:00:02;14.20;99.90
32400;DHT22;45045;45.440;9.178;2024-03-02T00:02:42;14.20;99.90
32400;DHT22;45045;45.440;9.178;2024-03-02T00:05:17;14.20;99.90
32400;DHT22;45045;45.440;9.178;2024-03-02T00:07:45;14.20;99.90
32400;DHT22;45045;45.440;9.178;2024-03-02T00:10:14;14.20;99.90
32400;DHT22;45045;45.440;9.178;2024-03-02T00:12:41;14.20;99.90
32400;DHT22;45045;45.440;9.178;2024-03-02T00:15:40;14.20;99.90
32400;DHT22;45045;45.440;9.178;2024-03-02T00:18:10;14.20;99.90
32400;DHT22;45045;45.440;9.178;2024-03-02T00:20:36;14.10;99.90
32400;DHT22;45045;45.440;9.178;2024-03-02T00:23:09;14.10;99.90
32400;DHT22;45045;45.440;9.178;2024-03-02T00:25:42;14.10;99.90
32400;DHT22;45045;45.440;9.178;2024-03-02T00:28:34;14.10;99.90
32400;DHT22;45045;45.440;9.178;2024-03-02T00:31:11;14.10;99.90
32400;DHT22;45045;45.440;9.178;2024-03-02T00:33:49;14.10;99.90
32400;DHT22;45045;45.440;9.178;2024-03-02T00:36:21;14.10;99.90
32400;DHT22;45045;45.440;9.178;2024-03-02T00:38:49;14.10;99.90
32400;DHT22;45045;45.440;9.178;2024-03-02T00:41:27;14.20;99.90
32400;DHT22;45045;45.440;9.178;2024-03-02T00:44:03;14.20;99.90
32400;DHT22;45045;45.440;9.178;2024-03-02T00:46:35;14.30;99.90
32400;DHT22;45045;45.440;9.178;2024-03-02T00:49:09;14.30;99.90
32400;DHT22;45045;45.440;9.178;2024-03-02T00:51:37;14.20;99.90
32400;DHT22;45045;45.440;9.178;2024-03-02T00:54:05;14.20;99.90
32400;DHT22;45045;45.440;9.178;2024-03-02T00:56:32;14.30;99.90
32400;DHT22;45045;45.440;9.178;2024-03-02T00:58:58;14.30;99.90
32400;DHT22;45045;45.440;9.178;2024-03-02T01:01:24;14.20;99.90
32400;DHT22;45045;45.440;9.178;2024-03-02T01:03:49;14.20;99.90
32400;DHT22;45045;45.440;9.178;2024-03-02T01:06:16;14.30;99.90
32400;DHT22;45045;45.440;9.178;2024-03-02T01:08:42;14.30;99.90
32400;DHT22;45045;45.440;9.178;2024-03-02T01:11:08;14.40;99.90
32400;DHT22;45045;45.440;9.178;2024-03-02T01:13:34;14.40;99.90
32400;DHT22;45045;45.440;9.178;2024-03-02T01:16:01;14.40;99.90
32400;DHT22;45045;45.440;9.178;2024-03-02T01:18:27;14.30;99.90
32400;DHT22;45045;45.440;9.178;2024-03-02T01:20:52;14.30;99.90
32400;DHT22;45045;45.440;9.178;2024-03-02T01:23:21;14.20;99.90
32400;DHT22;45045;45.440;9.178;2024-03-02T01:25:47;14.20;99.90
32400;DHT22;45045;45.440;9.178;2024-03-02T01:28:13;14.20;99.90
32400;DHT22;45045;45.440;9.178;2024-03-02T01:30:39;14.20;99.90
32400;DHT22;45045;45.440;9.178;2024-03-02T01:33:05;14.10;99.90
32400;DHT22;45045;45.440;9.178;2024-03-02T01:35:31;14.20;99.90
32400;DHT22;45045;45.440;9.178;2024-03-02T01:37:57;14.10;99.90
32400;DHT22;45045;45.440;9.178;2024-03-02T01:40:23;14.20;99.90
32400;DHT22;45045;45.440;9.178;2024-03-02T01:42:52;14.20;99.90
32400;DHT22;45045;45.440;9.178;2024-03-02T01:45:19;14.30;99.90
32400;DHT22;45045;45.440;9.178;2024-03-02T01:47:45;14.30;99.90
32400;DHT22;45045;45.440;9.178;2024-03-02T01:50:13;14.30;99.90
32400;DHT22;45045;45.440;9.178;2024-03-02T01:52:40;14.20;99.90
32400;DHT22;45045;45.440;9.178;2024-03-02T01:55:06;14.30;99.90
32400;DHT22;45045;45.440;9.178;2024-03-02T01:57:33;14.40;99.90
32400;DHT22;45045;45.440;9.178;2024-03-02T02:00:00;14.30;99.90
32400;DHT22;45045;45.440;9.178;2024-03-02T02:02:26;14.30;99.90
32400;DHT22;45045;45.440;9.178;2024-03-02T02:04:52;14.30;99.90
32400;DHT22;45045;45.440;9.178;2024-03-02T02:07:17;14.20;99.90
32400;DHT22;45045;45.440;9.178;2024-03-02T02:09:44;14.20;99.90
32400;DHT22;45045;45.440;9.178;2024-03-02T02:12:10;14.10;99.90
32400;DHT22;45045;45.440;9.178;2024-03-02T02:14:36;14.00;99.90
32400;DHT22;45045;45.440;9.178;2024-03-02T02:17:02;14.00;99.90
32400;DHT22;45045;45.440;9.178;2024-03-02T02:19:28;14.00;99.90
32400;DHT22;45045;45.440;9.178;2024-03-02T02:21:54;14.10;99.90
32400;DHT22;45045;45.440;9.178;2024-03-02T02:24:20;14.00;99.90
32400;DHT22;45045;45.440;9.178;2024-03-02T02:26:46;14.00;99.90
32400;DHT22;45045;45.440;9.178;2024-03-02T02:29:12;14.00;99.90
32400;DHT22;45045;45.440;9.178;2024-03-02T02:31:38;14.00;99.90
32400;DHT22;45045;45.440;9.178;2024-03-02T02:34:04;14.00;99.90
32400;DHT22;45045;45.440;9.178;2024-03-02T02:36:31;13.90;99.90
32400;DHT22;45045;45.440;9.178;2024-03-02T02:38:57;13.90;99.90
32400;DHT22;45045;45.440;9.178;2024-03-02T02:41:23;13.90;99.90
32400;DHT22;45045;45.440;9.178;2024-03-02T02:43:48;13.90;99.90
32400;DHT22;45045;45.440;9.178;2024-03-02T02:46:14;13.90;99.90
32400;DHT22;45045;45.440;9.178;2024-03-02T02:48:39;13.90;99.90
32400;DHT22;45045;45.440;9.178;2024-03-02T02:51:05;13.90;99.90
32400;DHT22;45045;45.440;9.178;2024-03-02T02:53:31;13.90;99.90
32400;DHT22;45045;45.440;9.178;2024-03-02T02:55:57;13.90;99.90
32400;DHT22;45045;45.440;9.178;2024-03-02T02:58:22;13.90;99.90
32400;DHT22;45045;45.440;9.178;2024-03-02T03:00:48;13.90;99.90
32400;DHT22;45045;45.440;9.178;2024-03-02T03:03:14;13.90;99.90
32400;DHT22;45045;45.440;9.178;2024-03-02T03:05:39;13.90;99.90
32400;DHT22;45045;45.440;9.178;2024-03-02T03:08:05;13.90;99.90
32400;DHT22;45045;45.440;9.178;2024-03-02T03:10:31;13.90;99.90
32400;DHT22;45045;45.440;9.178;2024-03-02T03:12:56;13.90;99.90
32400;DHT22;45045;45.440;9.178;2024-03-02T03:15:22;13.90;99.90
32400;DHT22;45045;45.440;9.178;2024-03-02T03:17:48;13.90;99.90
32400;DHT22;45045;45.440;9.178;2024-03-02T03:20:14;13.90;99.90
32400;DHT22;45045;45.440;9.178;2024-03-02T03:22:40;13.90;99.90
32400;DHT22;45045;45.440;9.178;2024-03-02T03:25:07;13.90;99.90
32400;DHT22;45045;45.440;9.178;2024-03-02T03:27:33;13.90;99.90
32400;DHT22;45045;45.440;9.178;2024-03-02T03:29:59;13.80;99.90
32400;DHT22;45045;45.440;9.178;2024-03-02T03:32:24;13.80;99.90
32400;DHT22;45045;45.440;9.178;2024-03-02T03:34:50;13.80;99.90
32400;DHT22;45045;45.440;9.178;2024-03-02T03:37:16;13.70;99.90
32400;DHT22;45045;45.440;9.178;2024-03-02T03:39:42;13.80;99.90
32400;DHT22;45045;45.440;9.178;2024-03-02T03:42:07;13.80;99.90
32400;DHT22;45045;45.440;9.178;2024-03-02T03:44:33;13.80;99.90
32400;DHT22;45045;45.440;9.178;2024-03-02T03:46:59;13.80;99.90
32400;DHT22;45045;45.440;9.178;2024-03-02T03:49:26;13.90;99.90
32400;DHT22;45045;45.440;9.178;2024-03-02T03:51:51;13.90;99.90
32400;DHT22;45045;45.440;9.178;2024-03-02T03:54:17;13.80;99.90
32400;DHT22;45045;45.440;9.178;2024-03-02T03:56:43;13.80;99.90
32400;DHT22;45045;45.440;9.178;2024-03-02T03:59:08;13.80;99.90
32400;DHT22;45045;45.440;9.178;2024-03-02T04:01:34;13.80;99.90
32400;DHT22;45045;45.440;9.178;2024-03-02T04:04:00;13.80;99.90
32400;DHT22;45045;45.440;9.178;2024-03-02T04:06:27;13.80;99.90
32400;DHT22;45045;45.440;9.178;2024-03-02T04:08:53;13.80;99.90
32400;DHT22;45045;45.440;9.178;2024-03-02T04:11:18;13.80;99.90
32400;DHT22;45045;45.440;9.178;2024-03-02T04:13:44;13.70;99.90
32400;DHT22;45045;45.440;9.178;2024-03-02T04:16:09;13.80;99.90
32400;DHT22;45045;45.440;9.178;2024-03-02T04:18:35;13.70;99.90
32400;DHT22;45045;45.440;9.178;2024-03-02T04:21:01;13.70;99.90
32400;DHT22;45045;45.440;9.178;2024-03-02T04:23:26;13.70;99.90
32400;DHT22;45045;45.440;9.178;2024-03-02T04:25:52;13.70;99.90
32400;DHT22;45045;45.440;9.178;2024-03-02T04:28:18;13.70;99.90
32400;DHT22;45045;45.440;9.178;2024-03-02T04:30:44;13.70;99.90
32400;DHT22;45045;45.440;9.178;2024-03-02T04:33:09;13.70;99.90
32400;DHT22;45045;45.440;9.178;2024-03-02T04:35:39;13.70;99.90
32400;DHT22;45045;45.440;9.178;2024-03-02T04:38:04;13.70;99.90
32400;DHT22;45045;45.440;9.178;2024-03-02T04:40:30;13.70;99.90
32400;DHT22;45045;45.440;9.178;2024-03-02T04:42:56;13.70;99.90
32400;DHT22;45045;45.440;9.178;2024-03-02T04:45:23;13.60;99.90
32400;DHT22;45045;45.440;9.178;2024-03-02T04:47:49;13.50;99.90
32400;DHT22;45045;45.440;9.178;2024-03-02T04:50:14;13.50;99.90
32400;DHT22;45045;45.440;9.178;2024-03-02T04:52:40;13.50;99.90
32400;DHT22;45045;45.440;9.178;2024-03-02T04:55:06;13.40;99.90
32400;DHT22;45045;45.440;9.178;2024-03-02T04:57:50;13.40;99.90
32400;DHT22;45045;45.440;9.178;2024-03-02T05:00:20;13.30;99.90
32400;DHT22;45045;45.440;9.178;2024-03-02T05:02:46;13.20;99.90
32400;DHT22;45045;45.440;9.178;2024-03-02T05:05:11;13.20;99.90
32400;DHT22;45045;45.440;9.178;2024-03-02T05:07:37;13.10;99.90
32400;DHT22;45045;45.440;9.178;2024-03-02T05:10:03;13.10;99.90
32400;DHT22;45045;45.440;9.178;2024-03-02T05:12:29;13.00;99.90
32400;DHT22;45045;45.440;9.178;2024-03-02T05:15:15;13.10;99.90
32400;DHT22;45045;45.440;9.178;2024-03-02T05:17:41;13.10;99.90
32400;DHT22;45045;45.440;9.178;2024-03-02T05:20:10;13.10;99.90
32400;DHT22;45045;45.440;9.178;2024-03-02T05:22:37;13.10;99.90
32400;DHT22;45045;45.440;9.178;2024-03-02T05:25:06;13.10;99.90
32400;DHT22;45045;45.440;9.178;2024-03-02T05:27:32;13.10;99.90
32400;DHT22;45045;45.440;9.178;2024-03-02T05:29:58;13.10;99.90
32400;DHT22;45045;45.440;9.178;2024-03-02T05:32:24;13.20;99.90
32400;DHT22;45045;45.440;9.178;2024-03-02T05:34:49;13.20;99.90
32400;DHT22;45045;45.440;9.178;2024-03-02T05:37:16;13.20;99.90
32400;DHT22;45045;45.440;9.178;2024-03-02T05:39:42;13.20;99.90
32400;DHT22;45045;45.440;9.178;2024-03-02T05:42:09;13.20;99.90
32400;DHT22;45045;45.440;9.178;2024-03-02T05:44:35;13.20;99.90
32400;DHT22;45045;45.440;9.178;2024-03-02T05:47:01;13.20;99.90
32400;DHT22;45045;45.440;9.178;2024-03-02T05:49:27;13.20;99.90
32400;DHT22;45045;45.440;9.178;2024-03-02T05:51:52;13.20;99.90
32400;DHT22;45045;45.440;9.178;2024-03-02T05:54:18;13.20;99.90
32400;DHT22;45045;45.440;9.178;2024-03-02T05:56:43;13.20;99.90
32400;DHT22;45045;45.440;9.178;2024-03-02T05:59:09;13.20;99.90
32400;DHT22;45045;45.440;9.178;2024-03-02T06:01:39;13.30;99.90
32400;DHT22;45045;45.440;9.178;2024-03-02T06:04:05;13.20;99.90
32400;DHT22;45045;45.440;9.178;2024-03-02T06:06:31;13.20;99.90
32400;DHT22;45045;45.440;9.178;2024-03-02T06:08:59;13.10;99.90
32400;DHT22;45045;45.440;9.178;2024-03-02T06:11:25;13.10;99.90
32400;DHT22;45045;45.440;9.178;2024-03-02T06:13:50;13.10;99.90
32400;DHT22;45045;45.440;9.178;2024-03-02T06:16:16;13.10;99.90
32400;DHT22;45045;45.440;9.178;2024-03-02T06:18:41;13.10;99.90
32400;DHT22;45045;45.440;9.178;2024-03-02T06:21:07;13.10;99.90
32400;DHT22;45045;45.440;9.178;2024-03-02T06:23:33;13.00;99.90
32400;DHT22;45045;45.440;9.178;2024-03-02T06:26:00;13.00;99.90
32400;DHT22;45045;45.440;9.178;2024-03-02T06:28:26;13.00;99.90
32400;DHT22;45045;45.440;9.178;2024-03-02T06:30:52;12.90;99.90
32400;DHT22;45045;45.440;9.178;2024-03-02T06:33:17;12.90;99.90
32400;DHT22;45045;45.440;9.178;2024-03-02T06:35:43;13.00;99.90
32400;DHT22;45045;45.440;9.178;2024-03-02T06:38:08;13.00;99.90
32400;DHT22;45045;45.440;9.178;2024-03-02T06:40:34;13.00;99.90
32400;DHT22;45045;45.440;9.178;2024-03-02T06:43:00;13.10;99.90
32400;DHT22;45045;45.440;9.178;2024-03-02T06:45:25;13.10;99.90
32400;DHT22;45045;45.440;9.178;2024-03-02T06:47:52;13.10;99.90
32400;DHT22;45045;45.440;9.178;2024-03-02T06:50:17;13.10;99.90
32400;DHT22;45045;45.440;9.178;2024-03-02T06:52:43;13.10;99.90
32400;DHT22;45045;45.440;9.178;2024-03-02T06:55:09;13.10;99.90
32400;DHT22;45045;45.440;9.178;2024-03-02T06:57:35;13.20;99.90
32400;DHT22;45045;45.440;9.178;2024-03-02T07:00:00;13.10;99.90
32400;DHT22;45045;45.440;9.178;2024-03-02T07:02:27;13.10;99.90
32400;DHT22;45045;45.440;9.178;2024-03-02T07:04:55;13.10;99.90
32400;DHT22;45045;45.440;9.178;2024-03-02T07:07:21;13.10;99.90
32400;DHT22;45045;45.440;9.178;2024-03-02T07:09:47;13.10;99.90
32400;DHT22;45045;45.440;9.178;2024-03-02T07:12:13;13.10;99.90
32400;DHT22;45045;45.440;9.178;2024-03-02T07:14:39;13.00;99.90
32400;DHT22;45045;45.440;9.178;2024-03-02T07:17:23;13.00;99.90
32400;DHT22;45045;45.440;9.178;2024-03-02T07:19:50;13.00;99.90
32400;DHT22;45045;45.440;9.178;2024-03-02T07:22:15;13.10;99.90
32400;DHT22;45045;45.440;9.178;2024-03-02T07:24:42;13.10;99.90
32400;DHT22;45045;45.440;9.178;2024-03-02T07:27:11;13.20;99.90
32400;DHT22;45045;45.440;9.178;2024-03-02T07:29:38;13.20;99.90
32400;DHT22;45045;45.440;9.178;2024-03-02T07:32:04;13.10;99.90
32400;DHT22;45045;45.440;9.178;2024-03-02T07:34:30;13.20;99.90
32400;DHT22;45045;45.440;9.178;2024-03-02T07:36:56;13.10;99.90
32400;DHT22;45045;45.440;9.178;2024-03-02T07:39:22;13.10;99.90
32400;DHT22;45045;45.440;9.178;2024-03-02T07:41:48;13.10;99.90
32400;DHT22;45045;45.440;9.178;2024-03-02T07:44:14;13.10;99.90
32400;DHT22;45045;45.440;9.178;2024-03-02T07:46:43;13.20;99.90
32400;DHT22;45045;45.440;9.178;2024-03-02T07:49:09;13.20;99.90
32400;DHT22;45045;45.440;9.178;2024-03-02T07:51:35;13.20;99.90
32400;DHT22;45045;45.440;9.178;2024-03-02T07:54:02;13.10;99.90
32400;DHT22;45045;45.440;9.178;2024-03-02T07:56:27;13.00;99.90
32400;DHT22;45045;45.440;9.178;2024-03-02T07:58:54;13.00;99.90
32400;DHT22;45045;45.440;9.178;2024-03-02T08:01:22;13.00;99.90
32400;DHT22;45045;45.440;9.178;2024-03-02T08:03:48;12.90;99.90
32400;DHT22;45045;45.440;9.178;2024-03-02T08:06:16;13.00;99.90
32400;DHT22;45045;45.440;9.178;2024-03-02T08:08:42;12.90;99.90
32400;DHT22;45045;45.440;9.178;2024-03-02T08:11:07;12.90;99.90
32400;DHT22;45045;45.440;9.178;2024-03-02T08:13:33;12.80;99.90
32400;DHT22;45045;45.440;9.178;2024-03-02T08:15:59;13.30;99.90
32400;DHT22;45045;45.440;9.178;2024-03-02T08:18:24;14.30;99.90
32400;DHT22;45045;45.440;9.178;2024-03-02T08:20:50;14.90;99.90
32400;DHT22;45045;45.440;9.178;2024-03-02T08:23:16;14.20;99.90
32400;DHT22;45045;45.440;9.178;2024-03-02T08:25:42;13.90;99.90
32400;DHT22;45045;45.440;9.178;2024-03-02T08:28:08;13.70;99.90
32400;DHT22;45045;45.440;9.178;2024-03-02T08:30:33;13.60;99.90
32400;DHT22;45045;45.440;9.178;2024-03-02T08:32:59;13.90;99.90
32400;DHT22;45045;45.440;9.178;2024-03-02T08:35:26;13.90;99.90
32400;DHT22;45045;45.440;9.178;2024-03-02T08:37:51;13.80;99.90
32400;DHT22;45045;45.440;9.178;2024-03-02T08:40:17;14.10;99.90
32400;DHT22;45045;45.440;9.178;2024-03-02T08:42:43;14.20;99.90
32400;DHT22;45045;45.440;9.178;2024-03-02T08:45:09;13.90;99.90
32400;DHT22;45045;45.440;9.178;2024-03-02T08:47:34;14.20;99.90
32400;DHT22;45045;45.440;9.178;2024-03-02T08:50:00;14.10;99.90
32400;DHT22;45045;45.440;9.178;2024-03-02T08:52:26;14.10;99.90
32400;DHT22;45045;45.440;9.178;2024-03-02T08:54:52;14.30;99.90
32400;DHT22;45045;45.440;9.178;2024-03-02T08:57:18;14.20;99.90
32400;DHT22;45045;45.440;9.178;2024-03-02T08:59:44;14.10;99.90
32400;DHT22;45045;45.440;9.178;2024-03-02T09:02:11;14.00;99.90
32400;DHT22;45045;45.440;9.178;2024-03-02T09:04:36;14.00;99.90
32400;DHT22;45045;45.440;9.178;2024-03-02T09:07:02;14.80;99.90
32400;DHT22;45045;45.440;9.178;2024-03-02T09:09:28;15.50;99.90
32400;DHT22;45045;45.440;9.178;2024-03-02T09:11:54;15.90;99.90
32400;DHT22;45045;45.440;9.178;2024-03-02T09:14:23;16.20;99.90
32400;DHT22;45045;45.440;9.178;2024-03-02T09:16:49;16.50;99.90
32400;DHT22;45045;45.440;9.178;2024-03-02T09:19:14;16.60;99.90
32400;DHT22;45045;45.440;9.178;2024-03-02T09:21:42;16.70;99.90
32400;DHT22;45045;45.440;9.178;2024-03-02T09:24:07;16.50;99.90
32400;DHT22;45045;45.440;9.178;2024-03-02T09:26:33;15.90;99.90
32400;DHT22;45045;45.440;9.178;2024-03-02T09:28:59;15.70;99.90
32400;DHT22;45045;45.440;9.178;2024-03-02T09:31:24;15.40;99.90
32400;DHT22;45045;45.440;9.178;2024-03-02T09:33:50;15.30;99.90
32400;DHT22;45045;45.440;9.178;2024-03-02T09:36:20;15.20;99.90
32400;DHT22;45045;45.440;9.178;2024-03-02T09:38:46;15.10;99.90
32400;DHT22;45045;45.440;9.178;2024-03-02T09:41:12;15.20;99.90
32400;DHT22;45045;45.440;9.178;2024-03-02T09:43:38;15.20;99.90
32400;DHT22;45045;45.440;9.178;2024-03-02T09:46:03;15.30;99.90
32400;DHT22;45045;45.440;9.178;2024-03-02T09:48:29;15.30;99.90
32400;DHT22;45045;45.440;9.178;2024-03-02T09:50:55;15.00;99.90
32400;DHT22;45045;45.440;9.178;2024-03-02T09:53:22;15.00;99.90
32400;DHT22;45045;45.440;9.178;2024-03-02T09:55:48;15.20;99.90
32400;DHT22;45045;45.440;9.178;2024-03-02T09:58:14;15.00;99.90
32400;DHT22;45045;45.440;9.178;2024-03-02T10:00:39;14.90;99.90
32400;DHT22;45045;45.440;9.178;2024-03-02T10:03:05;14.90;99.90
32400;DHT22;45045;45.440;9.178;2024-03-02T10:05:36;14.70;99.90
32400;DHT22;45045;45.440;9.178;2024-03-02T10:08:04;14.60;99.90
32400;DHT22;45045;45.440;9.178;2024-03-02T10:10:37;15.00;99.90
32400;DHT22;45045;45.440;9.178;2024-03-02T10:13:06;15.70;99.90
32400;DHT22;45045;45.440;9.178;2024-03-02T10:15:33;16.10;99.90
32400;DHT22;45045;45.440;9.178;2024-03-02T10:17:58;16.40;99.90
32400;DHT22;45045;45.440;9.178;2024-03-02T10:20:25;16.30;99.90
32400;DHT22;45045;45.440;9.178;2024-03-02T10:22:51;15.70;99.90
32400;DHT22;45045;45.440;9.178;2024-03-02T10:25:31;15.30;99.90
32400;DHT22;45045;45.440;9.178;2024-03-02T10:27:58;15.10;99.90
32400;DHT22;45045;45.440;9.178;2024-03-02T10:30:25;14.80;99.90
32400;DHT22;45045;45.440;9.178;2024-03-02T10:32:53;14.70;99.90
32400;DHT22;45045;45.440;9.178;2024-03-02T10:35:20;14.50;99.90
32400;DHT22;45045;45.440;9.178;2024-03-02T10:37:47;14.40;99.90
32400;DHT22;45045;45.440;9.178;2024-03-02T10:40:14;14.40;99.90
32400;DHT22;45045;45.440;9.178;2024-03-02T10:42:41;14.30;99.90
32400;DHT22;45045;45.440;9.178;2024-03-02T10:45:09;14.20;99.90
32400;DHT22;45045;45.440;9.178;2024-03-02T10:47:37;14.20;99.90
32400;DHT22;45045;45.440;9.178;2024-03-02T10:50:05;14.80;99.90
32400;DHT22;45045;45.440;9.178;2024-03-02T10:52:39;15.00;99.90
32400;DHT22;45045;45.440;9.178;2024-03-02T10:55:06;14.80;99.90
32400;DHT22;45045;45.440;9.178;2024-03-02T10:57:54;14.60;99.90
32400;DHT22;45045;45.440;9.178;2024-03-02T11:00:24;14.50;99.90
32400;DHT22;45045;45.440;9.178;2024-03-02T11:02:57;14.50;99.90
32400;DHT22;45045;45.440;9.178;2024-03-02T11:05:33;14.70;99.90
32400;DHT22;45045;45.440;9.178;2024-03-02T11:08:02;14.60;99.90
32400;DHT22;45045;45.440;9.178;2024-03-02T11:10:38;14.60;99.90
32400;DHT22;45045;45.440;9.178;2024-03-02T11:13:09;14.60;99.90
32400;DHT22;45045;45.440;9.178;2024-03-02T11:15:36;14.50;99.90
32400;DHT22;45045;45.440;9.178;2024-03-02T11:18:04;14.20;99.90
32400;DHT22;45045;45.440;9.178;2024-03-02T11:20:38;14.20;99.90
32400;DHT22;45045;45.440;9.178;2024-03-02T11:23:05;14.50;99.90
32400;DHT22;45045;45.440;9.178;2024-03-02T11:25:32;14.60;99.90
32400;DHT22;45045;45.440;9.178;2024-03-02T11:28:07;15.40;99.90
32400;DHT22;45045;45.440;9.178;2024-03-02T11:33:04;16.30;99.90
32400;DHT22;45045;45.440;9.178;2024-03-02T11:35:51;16.50;99.90
32400;DHT22;45045;45.440;9.178;2024-03-02T11:38:18;16.80;99.90
32400;DHT22;45045;45.440;9.178;2024-03-02T11:40:44;16.80;99.90
32400;DHT22;45045;45.440;9.178;2024-03-02T11:43:11;16.50;99.90
32400;DHT22;45045;45.440;9.178;2024-03-02T11:45:37;16.20;99.90
32400;DHT22;45045;45.440;9.178;2024-03-02T11:48:08;16.00;99.90
32400;DHT22;45045;45.440;9.178;2024-03-02T11:50:42;15.60;99.90
32400;DHT22;45045;45.440;9.178;2024-03-02T11:53:11;15.20;99.90
32400;DHT22;45045;45.440;9.178;2024-03-02T11:55:40;15.20;99.90
32400;DHT22;45045;45.440;9.178;2024-03-02T11:58:15;15.10;99.90
32400;DHT22;45045;45.440;9.178;2024-03-02T12:00:56;15.00;99.90
32400;DHT22;45045;45.440;9.178;2024-03-02T12:03:25;15.20;99.90
32400;DHT22;45045;45.440;9.178;2024-03-02T12:05:53;15.10;99.90
32400;DHT22;45045;45.440;9.178;2024-03-02T12:08:19;15.50;99.90
32400;DHT22;45045;45.440;9.178;2024-03-02T12:10:59;15.20;99.90
32400;DHT22;45045;45.440;9.178;2024-03-02T12:13:26;15.00;99.90
32400;DHT22;45045;45.440;9.178;2024-03-02T12:15:53;14.80;99.90
32400;DHT22;45045;45.440;9.178;2024-03-02T12:18:20;15.10;99.90
32400;DHT22;45045;45.440;9.178;2024-03-02T12:20:48;14.90;99.90
32400;DHT22;45045;45.440;9.178;2024-03-02T12:23:14;14.90;99.90
32400;DHT22;45045;45.440;9.178;2024-03-02T12:25:40;15.00;99.90
32400;DHT22;45045;45.440;9.178;2024-03-02T12:28:06;15.00;99.90
32400;DHT22;45045;45.440;9.178;2024-03-02T12:30:35;14.80;99.90
32400;DHT22;45045;45.440;9.178;2024-03-02T12:33:01;14.90;99.90
32400;DHT22;45045;45.440;9.178;2024-03-02T12:35:27;15.40;99.90
32400;DHT22;45045;45.440;9.178;2024-03-02T12:37:53;15.70;99.90
32400;DHT22;45045;45.440;9.178;2024-03-02T12:40:20;15.90;99.90
32400;DHT22;45045;45.440;9.178;2024-03-02T12:42:48;15.70;99.90
32400;DHT22;45045;45.440;9.178;2024-03-02T12:45:13;15.40;99.90
32400;DHT22;45045;45.440;9.178;2024-03-02T12:47:40;15.20;99.90
32400;DHT22;45045;45.440;9.178;2024-03-02T12:50:07;15.20;99.90
32400;DHT22;45045;45.440;9.178;2024-03-02T12:52:33;15.20;99.90
32400;DHT22;45045;45.440;9.178;2024-03-02T12:55:04;15.30;99.90
32400;DHT22;45045;45.440;9.178;2024-03-02T12:57:31;15.00;99.90
32400;DHT22;45045;45.440;9.178;2024-03-02T13:00:18;15.00;99.90
32400;DHT22;45045;45.440;9.178;2024-03-02T13:02:46;14.80;99.90
32400;DHT22;45045;45.440;9.178;2024-03-02T13:05:11;15.20;99.90
32400;DHT22;45045;45.440;9.178;2024-03-02T13:07:38;15.90;99.90
32400;DHT22;45045;45.440;9.178;2024-03-02T13:10:05;16.40;99.90
32400;DHT22;45045;45.440;9.178;2024-03-02T13:12:31;16.50;99.90
32400;DHT22;45045;45.440;9.178;2024-03-02T13:14:58;16.10;99.90
32400;DHT22;45045;45.440;9.178;2024-03-02T13:17:24;15.70;99.90
32400;DHT22;45045;45.440;9.178;2024-03-02T13:19:54;15.40;99.90
32400;DHT22;45045;45.440;9.178;2024-03-02T13:22:20;15.30;99.90
32400;DHT22;45045;45.440;9.178;2024-03-02T13:24:48;15.30;99.90
32400;DHT22;45045;45.440;9.178;2024-03-02T13:27:13;15.30;99.90
32400;DHT22;45045;45.440;9.178;2024-03-02T13:29:39;15.30;99.90
32400;DHT22;45045;45.440;9.178;2024-03-02T13:32:05;15.40;99.90
32400;DHT22;45045;45.440;9.178;2024-03-02T13:34:31;15.70;99.90
32400;DHT22;45045;45.440;9.178;2024-03-02T13:36:56;16.20;99.90
32400;DHT22;45045;45.440;9.178;2024-03-02T13:39:22;16.40;99.90
32400;DHT22;45045;45.440;9.178;2024-03-02T13:41:48;16.40;99.90
32400;DHT22;45045;45.440;9.178;2024-03-02T13:44:19;16.40;99.90
32400;DHT22;45045;45.440;9.178;2024-03-02T13:46:45;16.00;99.90
32400;DHT22;45045;45.440;9.178;2024-03-02T13:49:11;16.10;99.90
32400;DHT22;45045;45.440;9.178;2024-03-02T13:51:37;16.60;99.90
32400;DHT22;45045;45.440;9.178;2024-03-02T13:54:03;16.90;99.90
32400;DHT22;45045;45.440;9.178;2024-03-02T13:56:29;17.10;99.90
32400;DHT22;45045;45.440;9.178;2024-03-02T13:58:55;16.70;99.90
32400;DHT22;45045;45.440;9.178;2024-03-02T14:01:21;16.20;99.90
32400;DHT22;45045;45.440;9.178;2024-03-02T14:03:47;16.10;99.90
32400;DHT22;45045;45.440;9.178;2024-03-02T14:06:12;15.90;99.90
32400;DHT22;45045;45.440;9.178;2024-03-02T14:08:39;15.70;99.90
32400;DHT22;45045;45.440;9.178;2024-03-02T14:11:04;15.60;99.90
32400;DHT22;45045;45.440;9.178;2024-03-02T14:13:30;15.50;99.90
32400;DHT22;45045;45.440;9.178;2024-03-02T14:15:56;15.50;99.90
32400;DHT22;45045;45.440;9.178;2024-03-02T14:18:21;15.60;99.90
32400;DHT22;45045;45.440;9.178;2024-03-02T14:20:47;15.50;99.90
32400;DHT22;45045;45.440;9.178;2024-03-02T14:23:18;15.60;99.90
32400;DHT22;45045;45.440;9.178;2024-03-02T14:25:45;15.70;99.90
32400;DHT22;45045;45.440;9.178;2024-03-02T14:28:11;15.80;99.90
32400;DHT22;45045;45.440;9.178;2024-03-02T14:30:37;15.70;99.90
32400;DHT22;45045;45.440;9.178;2024-03-02T14:33:03;15.70;99.90
32400;DHT22;45045;45.440;9.178;2024-03-02T14:35:29;15.70;99.90
32400;DHT22;45045;45.440;9.178;2024-03-02T14:37:55;15.70;99.90
32400;DHT22;45045;45.440;9.178;2024-03-02T14:40:23;15.50;99.90
32400;DHT22;45045;45.440;9.178;2024-03-02T14:42:52;15.50;99.90
32400;DHT22;45045;45.440;9.178;2024-03-02T14:45:17;15.50;99.90
32400;DHT22;45045;45.440;9.178;2024-03-02T14:47:43;15.50;99.90
32400;DHT22;45045;45.440;9.178;2024-03-02T14:50:09;15.50;99.90
32400;DHT22;45045;45.440;9.178;2024-03-02T14:52:35;15.50;99.90
32400;DHT22;45045;45.440;9.178;2024-03-02T14:55:01;15.50;99.90
32400;DHT22;45045;45.440;9.178;2024-03-02T14:57:28;15.40;99.90
32400;DHT22;45045;45.440;9.178;2024-03-02T14:59:53;15.30;99.90
32400;DHT22;45045;45.440;9.178;2024-03-02T15:02:20;15.50;99.90
32400;DHT22;45045;45.440;9.178;2024-03-02T15:04:46;15.50;99.90
32400;DHT22;45045;45.440;9.178;2024-03-02T15:07:13;15.40;99.90
32400;DHT22;45045;45.440;9.178;2024-03-02T15:09:39;15.40;99.90
32400;DHT22;45045;45.440;9.178;2024-03-02T15:12:05;15.20;99.90
32400;DHT22;45045;45.440;9.178;2024-03-02T15:14:31;15.20;99.90
32400;DHT22;45045;45.440;9.178;2024-03-02T15:16:57;15.10;99.90
32400;DHT22;45045;45.440;9.178;2024-03-02T15:19:23;15.20;99.90
32400;DHT22;45045;45.440;9.178;2024-03-02T15:21:49;15.20;99.90
32400;DHT22;45045;45.440;9.178;2024-03-02T15:24:14;15.20;99.90
32400;DHT22;45045;45.440;9.178;2024-03-02T15:26:40;15.20;99.90
32400;DHT22;45045;45.440;9.178;2024-03-02T15:29:06;15.10;99.90
32400;DHT22;45045;45.440;9.178;2024-03-02T15:31:31;15.00;99.90